createdAt,value
2024-02-20T00:01:58.272Z,0.83
2024-02-20T00:04:25.572Z,0.80
2024-02-20T00:06:52.649Z,0.90
2024-02-20T00:09:19.733Z,1.00
2024-02-20T00:11:46.745Z,1.00
2024-02-20T00:14:16.275Z,1.00
2024-02-20T00:16:43.210Z,1.00
2024-02-20T00:19:10.233Z,0.90
2024-02-20T00:21:37.204Z,0.90
2024-02-20T00:24:04.400Z,1.00
2024-02-20T00:26:31.305Z,0.90
2024-02-20T00:28:58.179Z,0.80
2024-02-20T00:31:27.778Z,0.80
2024-02-20T00:33:54.747Z,1.00
2024-02-20T00:36:21.674Z,0.80
2024-02-20T00:38:48.583Z,0.90
2024-02-20T00:41:15.536Z,0.90
2024-02-20T00:43:42.478Z,1.10
2024-02-20T00:46:09.408Z,0.87
2024-02-20T00:48:39.021Z,0.90
2024-02-20T00:51:05.989Z,0.80
2024-02-20T00:53:32.868Z,0.90
2024-02-20T00:55:59.756Z,1.03
2024-02-20T00:58:26.671Z,1.40
2024-02-20T01:00:53.734Z,1.00
2024-02-20T01:03:20.701Z,0.90
2024-02-20T01:05:50.224Z,1.20
2024-02-20T01:08:17.134Z,1.00
2024-02-20T01:10:44.107Z,1.20
2024-02-20T01:13:11.151Z,1.17
2024-02-20T01:15:38.105Z,1.03
2024-02-20T01:18:06.147Z,1.13
2024-02-20T01:20:33.088Z,0.97
2024-02-20T01:23:02.579Z,1.17
2024-02-20T01:25:29.523Z,1.27
2024-02-20T01:27:56.464Z,1.20
2024-02-20T01:30:23.541Z,1.00
2024-02-20T01:32:50.549Z,1.33
2024-02-20T01:35:17.634Z,1.10
2024-02-20T01:37:44.669Z,1.30
2024-02-20T01:40:14.500Z,1.50
2024-02-20T01:42:41.419Z,1.10
2024-02-20T01:45:09.285Z,1.70
2024-02-20T01:47:36.511Z,1.40
2024-02-20T01:50:04.189Z,1.40
2024-02-20T01:52:31.489Z,1.53
2024-02-20T01:55:00.497Z,1.70
2024-02-20T01:57:30.409Z,1.50
2024-02-20T01:59:57.817Z,1.43
2024-02-20T02:02:24.864Z,1.30
2024-02-20T02:04:51.780Z,1.37
2024-02-20T02:07:18.823Z,1.20
2024-02-20T02:09:45.912Z,1.37
2024-02-20T02:12:12.888Z,1.33
2024-02-20T02:14:45.848Z,1.50
2024-02-20T02:17:12.842Z,1.70
2024-02-20T02:19:39.846Z,1.47
2024-02-20T02:22:07.338Z,1.50
2024-02-20T02:24:34.364Z,1.80
2024-02-20T02:27:04.345Z,1.60
2024-02-20T02:29:31.449Z,1.60
2024-02-20T02:31:58.369Z,2.73
2024-02-20T02:34:25.702Z,1.83
2024-02-20T02:36:52.678Z,1.90
2024-02-20T02:39:19.603Z,1.90
2024-02-20T02:41:46.469Z,1.80
2024-02-20T02:44:16.116Z,2.17
2024-02-20T02:46:43.071Z,2.00
2024-02-20T02:49:10.127Z,1.87
2024-02-20T02:51:37.371Z,2.20
2024-02-20T02:54:04.576Z,2.30
2024-02-20T02:56:31.991Z,2.60
2024-02-20T02:58:59.322Z,2.33
2024-02-20T03:01:28.883Z,2.23
2024-02-20T03:03:55.867Z,2.50
2024-02-20T03:06:22.879Z,2.03
2024-02-20T03:08:49.782Z,2.30
2024-02-20T03:11:16.791Z,2.40
2024-02-20T03:13:44.097Z,2.10
2024-02-20T03:16:11.019Z,2.00
2024-02-20T03:18:41.027Z,2.10
2024-02-20T03:21:07.941Z,2.10
2024-02-20T03:23:34.931Z,1.87
2024-02-20T03:26:01.941Z,2.17
2024-02-20T03:28:29.186Z,2.60
2024-02-20T03:30:56.180Z,2.03
2024-02-20T03:33:23.246Z,2.37
2024-02-20T03:35:53.033Z,2.13
2024-02-20T03:38:19.947Z,2.40
2024-02-20T03:40:46.841Z,2.20
2024-02-20T03:43:13.774Z,2.00
2024-02-20T03:45:40.773Z,2.37
2024-02-20T03:48:08.531Z,2.73
2024-02-20T03:50:35.867Z,2.10
2024-02-20T03:53:07.942Z,2.30
2024-02-20T03:55:35.498Z,2.10
2024-02-20T03:58:02.865Z,2.93
2024-02-20T04:00:29.959Z,2.40
2024-02-20T04:02:56.917Z,2.20
2024-02-20T04:05:24.193Z,2.50
2024-02-20T04:07:51.145Z,2.20
2024-02-20T04:10:21.195Z,2.20
2024-02-20T04:12:48.140Z,2.13
2024-02-20T04:15:15.929Z,2.50
2024-02-20T04:17:43.026Z,2.37
2024-02-20T04:20:11.336Z,2.47
2024-02-20T04:22:39.219Z,2.67
2024-02-20T04:25:07.463Z,2.40
2024-02-20T04:27:38.047Z,2.40
2024-02-20T04:30:06.339Z,2.23
2024-02-20T04:32:33.248Z,2.23
2024-02-20T04:35:00.378Z,2.60
2024-02-20T04:37:27.378Z,2.43
2024-02-20T04:39:54.281Z,2.93
2024-02-20T04:42:21.214Z,2.20
2024-02-20T04:44:50.957Z,2.33
2024-02-20T04:47:20.332Z,2.43
2024-02-20T04:49:48.251Z,2.53
2024-02-20T04:52:15.175Z,2.40
2024-02-20T04:54:42.123Z,2.03
2024-02-20T04:57:09.015Z,2.03
2024-02-20T04:59:35.929Z,2.60
2024-02-20T05:02:05.492Z,2.30
2024-02-20T05:04:32.469Z,2.70
2024-02-20T05:06:59.650Z,2.70
2024-02-20T05:09:26.727Z,2.63
2024-02-20T05:11:53.655Z,2.33
2024-02-20T05:14:20.610Z,2.50
2024-02-20T05:16:47.527Z,2.57
2024-02-20T05:19:17.270Z,2.63
2024-02-20T05:21:44.204Z,2.57
2024-02-20T05:24:11.102Z,2.47
2024-02-20T05:26:38.010Z,2.47
2024-02-20T05:29:04.915Z,2.60
2024-02-20T05:31:32.890Z,2.83
2024-02-20T05:34:01.728Z,2.57
2024-02-20T05:36:31.346Z,2.40
2024-02-20T05:38:58.542Z,2.90
2024-02-20T05:41:25.419Z,2.87
2024-02-20T05:43:52.368Z,2.10
2024-02-20T05:46:19.292Z,2.50
2024-02-20T05:48:46.315Z,2.20
2024-02-20T05:51:14.445Z,2.97
2024-02-20T05:53:43.951Z,2.93
2024-02-20T05:56:10.862Z,3.17
2024-02-20T05:58:38.034Z,2.60
2024-02-20T06:01:05.371Z,2.77
2024-02-20T06:03:33.529Z,2.20
2024-02-20T06:06:00.496Z,2.50
2024-02-20T06:08:27.413Z,2.67
2024-02-20T06:10:56.989Z,2.73
2024-02-20T06:13:24.076Z,2.50
2024-02-20T06:15:51.014Z,2.57
2024-02-20T06:18:18.046Z,2.80
2024-02-20T06:20:45.238Z,2.37
2024-02-20T06:23:12.263Z,2.83
2024-02-20T06:25:41.481Z,3.17
2024-02-20T06:28:11.109Z,3.87
2024-02-20T06:30:38.081Z,7.97
2024-02-20T06:33:05.446Z,6.97
2024-02-20T06:35:32.492Z,7.63
2024-02-20T06:37:59.461Z,8.03
2024-02-20T06:40:26.392Z,6.90
2024-02-20T06:42:54.896Z,5.50
2024-02-20T06:45:24.377Z,4.20
2024-02-20T06:47:51.293Z,3.90
2024-02-20T06:50:18.437Z,4.20
2024-02-20T06:52:45.444Z,4.20
2024-02-20T06:55:12.738Z,4.27
2024-02-20T06:57:39.692Z,4.80
2024-02-20T07:00:08.158Z,5.07
2024-02-20T07:02:37.663Z,4.60
2024-02-20T07:05:05.044Z,3.87
2024-02-20T07:07:31.968Z,3.40
2024-02-20T07:09:58.945Z,3.40
2024-02-20T07:12:25.896Z,3.80
2024-02-20T07:14:52.829Z,3.50
2024-02-20T07:17:19.746Z,3.50
2024-02-20T07:19:49.353Z,3.90
2024-02-20T07:22:16.441Z,3.13
2024-02-20T07:24:43.373Z,3.50
2024-02-20T07:27:10.347Z,3.33
2024-02-20T07:29:41.079Z,3.10
2024-02-20T07:32:08.046Z,3.13
2024-02-20T07:34:35.142Z,3.10
2024-02-20T07:37:05.011Z,3.13
2024-02-20T07:39:32.277Z,3.60
2024-02-20T07:41:59.204Z,3.20
2024-02-20T07:44:26.840Z,3.20
2024-02-20T07:46:54.293Z,4.13
2024-02-20T07:49:21.517Z,3.13
2024-02-20T07:51:48.448Z,3.43
2024-02-20T07:54:18.012Z,3.70
2024-02-20T07:56:45.119Z,3.50
2024-02-20T07:59:12.127Z,3.47
2024-02-20T08:01:39.206Z,3.70
2024-02-20T08:04:06.257Z,2.83
2024-02-20T08:06:33.311Z,2.70
2024-02-20T08:09:01.049Z,3.10
2024-02-20T08:11:30.613Z,2.93
2024-02-20T08:13:57.503Z,3.30
2024-02-20T08:16:24.422Z,3.73
2024-02-20T08:18:51.454Z,3.47
2024-02-20T08:21:18.368Z,2.93
2024-02-20T08:23:45.308Z,2.73
2024-02-20T08:26:12.457Z,3.13
2024-02-20T08:28:43.188Z,2.67
2024-02-20T08:31:10.431Z,3.63
2024-02-20T08:33:37.516Z,3.10
2024-02-20T08:36:05.102Z,3.37
2024-02-20T08:38:31.997Z,3.07
2024-02-20T08:40:58.903Z,2.93
2024-02-20T08:43:25.876Z,2.70
2024-02-20T08:45:55.493Z,3.27
2024-02-20T08:48:22.502Z,3.07
2024-02-20T08:50:49.465Z,2.83
2024-02-20T08:53:16.339Z,3.00
2024-02-20T08:55:43.260Z,4.00
2024-02-20T08:58:10.349Z,3.40
2024-02-20T09:00:37.347Z,3.13
2024-02-20T09:03:06.970Z,3.07
2024-02-20T09:05:34.102Z,2.97
2024-02-20T09:08:01.248Z,3.10
2024-02-20T09:10:28.269Z,2.57
2024-02-20T09:12:55.212Z,3.10
2024-02-20T09:15:22.148Z,3.63
2024-02-20T09:17:49.146Z,3.03
2024-02-20T09:20:18.859Z,2.90
2024-02-20T09:22:45.885Z,2.70
2024-02-20T09:25:12.865Z,2.73
2024-02-20T09:27:39.833Z,2.90
2024-02-20T09:30:07.895Z,3.17
2024-02-20T09:32:35.034Z,2.60
2024-02-20T09:35:02.259Z,3.13
2024-02-20T09:37:31.802Z,3.80
2024-02-20T09:39:58.797Z,3.63
2024-02-20T09:42:26.098Z,3.30
2024-02-20T09:44:55.743Z,3.20
2024-02-20T09:47:23.170Z,3.13
2024-02-20T09:49:51.835Z,2.80
2024-02-20T09:52:19.881Z,3.20
2024-02-20T09:54:50.490Z,3.33
2024-02-20T09:57:18.101Z,3.17
2024-02-20T09:59:45.532Z,3.17
2024-02-20T10:02:17.663Z,3.70
2024-02-20T10:04:45.961Z,2.97
2024-02-20T10:07:13.244Z,3.10
2024-02-20T10:09:40.321Z,3.90
2024-02-20T10:12:20.065Z,3.30
2024-02-20T10:14:47.077Z,3.27
2024-02-20T10:17:15.416Z,3.13
2024-02-20T10:19:42.778Z,2.80
2024-02-20T10:22:10.523Z,3.00
2024-02-20T10:24:39.031Z,3.03
2024-02-20T10:27:06.311Z,2.57
2024-02-20T10:29:35.858Z,2.80
2024-02-20T10:32:03.176Z,2.60
2024-02-20T10:34:30.202Z,2.73
2024-02-20T10:37:06.626Z,2.50
2024-02-20T10:39:34.272Z,3.10
2024-02-20T10:42:01.219Z,2.50
2024-02-20T10:44:30.564Z,2.60
2024-02-20T10:47:02.890Z,3.20
2024-02-20T10:49:33.027Z,2.70
2024-02-20T10:52:03.694Z,3.03
2024-02-20T10:54:42.358Z,3.27
2024-02-20T10:57:14.870Z,2.23
2024-02-20T10:59:43.486Z,2.60
2024-02-20T11:02:13.642Z,2.13
2024-02-20T11:04:41.273Z,2.37
2024-02-20T11:07:09.317Z,2.37
2024-02-20T11:09:36.382Z,2.37
2024-02-20T11:12:10.635Z,2.47
2024-02-20T11:14:37.680Z,3.20
2024-02-20T11:17:24.702Z,2.87
2024-02-20T11:20:08.980Z,2.63
2024-02-20T11:22:36.118Z,2.90
2024-02-20T11:25:10.323Z,2.53
2024-02-20T11:27:38.767Z,2.50
2024-02-20T11:30:13.152Z,2.60
2024-02-20T11:32:42.826Z,2.20
2024-02-20T11:35:25.496Z,2.40
2024-02-20T11:37:55.306Z,2.60
2024-02-20T11:40:24.195Z,2.47
2024-02-20T11:42:51.490Z,2.80
2024-02-20T11:45:18.910Z,3.63
2024-02-20T11:48:00.777Z,2.30
2024-02-20T11:50:28.231Z,2.60
2024-02-20T11:53:03.569Z,2.43
2024-02-20T11:55:30.929Z,2.20
2024-02-20T11:57:57.848Z,2.30
2024-02-20T12:00:25.104Z,2.10
2024-02-20T12:02:54.856Z,2.63
2024-02-20T12:05:25.998Z,1.93
2024-02-20T12:07:53.324Z,2.20
2024-02-20T12:10:21.207Z,2.47
2024-02-20T12:12:48.483Z,2.33
2024-02-20T12:15:16.174Z,2.70
2024-02-20T12:17:44.614Z,1.77
2024-02-20T12:20:15.066Z,2.33
2024-02-20T12:22:43.711Z,2.57
2024-02-20T12:25:11.984Z,2.40
2024-02-20T12:27:39.921Z,2.20
2024-02-20T12:30:08.077Z,2.00
2024-02-20T12:32:35.322Z,2.20
2024-02-20T12:35:02.630Z,2.23
2024-02-20T12:37:32.364Z,1.80
2024-02-20T12:39:59.293Z,2.10
2024-02-20T12:42:26.194Z,1.80
2024-02-20T12:44:53.133Z,2.10
2024-02-20T12:47:20.030Z,2.13
2024-02-20T12:49:47.000Z,2.90
2024-02-20T12:52:14.567Z,1.73
2024-02-20T12:54:44.736Z,1.90
2024-02-20T12:57:11.654Z,1.93
2024-02-20T12:59:38.581Z,2.17
2024-02-20T13:02:06.058Z,2.87
2024-02-20T13:04:35.351Z,2.00
2024-02-20T13:07:02.888Z,2.13
2024-02-20T13:09:29.860Z,2.30
2024-02-20T13:11:59.425Z,2.37
2024-02-20T13:14:26.427Z,2.23
2024-02-20T13:16:53.466Z,2.43
2024-02-20T13:19:22.038Z,2.40
2024-02-20T13:21:49.000Z,2.83
2024-02-20T13:24:15.941Z,2.37
2024-02-20T13:26:42.883Z,2.00
2024-02-20T13:29:12.648Z,1.80
2024-02-20T13:31:39.934Z,1.70
2024-02-20T13:34:07.082Z,1.50
2024-02-20T13:36:34.315Z,1.70
2024-02-20T13:39:01.452Z,1.77
2024-02-20T13:41:28.377Z,1.70
2024-02-20T13:43:55.406Z,1.37
2024-02-20T13:46:25.017Z,2.00
2024-02-20T13:48:51.993Z,1.80
2024-02-20T13:51:18.971Z,1.67
2024-02-20T13:53:46.502Z,1.93
2024-02-20T13:56:13.402Z,1.70
2024-02-20T13:58:40.347Z,1.97
2024-02-20T14:01:07.394Z,2.00
2024-02-20T14:03:36.967Z,2.03
2024-02-20T14:06:04.700Z,2.20
2024-02-20T14:08:31.680Z,1.83
2024-02-20T14:10:59.000Z,2.50
2024-02-20T14:13:25.976Z,2.60
2024-02-20T14:15:52.887Z,2.13
2024-02-20T14:18:19.933Z,1.80
2024-02-20T14:20:49.654Z,2.00
2024-02-20T14:23:16.550Z,1.73
2024-02-20T14:25:43.708Z,1.70
2024-02-20T14:28:10.638Z,2.20
2024-02-20T14:30:41.716Z,1.83
2024-02-20T14:33:13.198Z,2.07
2024-02-20T14:35:40.209Z,1.73
2024-02-20T14:38:09.697Z,1.70
2024-02-20T14:40:36.631Z,2.27
2024-02-20T14:43:03.608Z,2.13
2024-02-20T14:45:30.568Z,1.90
2024-02-20T14:47:57.567Z,1.77
2024-02-20T14:50:24.509Z,2.07
2024-02-20T14:52:51.705Z,1.83
2024-02-20T14:55:21.523Z,1.90
2024-02-20T14:57:48.506Z,1.50
2024-02-20T15:00:16.238Z,2.00
2024-02-20T15:02:43.505Z,1.73
2024-02-20T15:05:12.925Z,1.40
2024-02-20T15:07:40.428Z,1.70
2024-02-20T15:10:08.730Z,1.67
2024-02-20T15:12:38.347Z,1.83
2024-02-20T15:15:06.075Z,2.50
2024-02-20T15:17:33.327Z,1.77
2024-02-20T15:20:00.442Z,2.23
2024-02-20T15:22:27.446Z,2.50
2024-02-20T15:24:54.693Z,2.60
2024-02-20T15:27:21.646Z,2.20
2024-02-20T15:29:51.189Z,6.77
2024-02-20T15:32:18.142Z,3.90
2024-02-20T15:34:45.650Z,2.80
2024-02-20T15:37:13.076Z,2.37
2024-02-20T15:39:40.035Z,2.37
2024-02-20T15:42:07.176Z,2.00
2024-02-20T15:44:35.989Z,1.60
2024-02-20T15:47:06.701Z,1.93
2024-02-20T15:49:33.704Z,2.07
2024-02-20T15:52:00.676Z,2.23
2024-02-20T15:54:27.897Z,2.30
2024-02-20T15:56:55.174Z,1.83
2024-02-20T15:59:22.748Z,1.60
2024-02-20T16:01:49.687Z,2.13
2024-02-20T16:04:19.343Z,1.90
2024-02-20T16:06:46.511Z,1.83
2024-02-20T16:09:13.427Z,2.33
2024-02-20T16:11:41.254Z,1.97
2024-02-20T16:14:08.851Z,1.80
2024-02-20T16:16:36.065Z,2.03
2024-02-20T16:19:03.051Z,2.70
2024-02-20T16:21:32.617Z,3.50
2024-02-20T16:23:59.519Z,4.07
2024-02-20T16:26:28.162Z,3.63
2024-02-20T16:28:55.940Z,3.13
2024-02-20T16:31:23.736Z,2.90
2024-02-20T16:33:50.778Z,2.57
2024-02-20T16:36:17.732Z,2.50
2024-02-20T16:38:47.444Z,2.90
2024-02-20T16:41:14.392Z,3.80
2024-02-20T16:43:41.310Z,3.13
2024-02-20T16:46:08.242Z,2.40
2024-02-20T16:48:35.510Z,2.70
2024-02-20T16:51:02.834Z,2.30
2024-02-20T16:53:29.785Z,2.47
2024-02-20T16:55:59.512Z,2.90
2024-02-20T16:58:26.470Z,2.57
2024-02-20T17:00:53.440Z,3.03
2024-02-20T17:03:20.333Z,2.90
2024-02-20T17:05:47.399Z,4.00
2024-02-20T17:08:14.563Z,3.50
2024-02-20T17:10:41.599Z,2.77
2024-02-20T17:13:11.133Z,3.10
2024-02-20T17:15:38.092Z,2.80
2024-02-20T17:18:05.300Z,2.20
2024-02-20T17:20:32.225Z,2.63
2024-02-20T17:22:59.204Z,3.23
2024-02-20T17:25:26.268Z,4.60
2024-02-20T17:27:53.261Z,5.90
2024-02-20T17:30:22.822Z,4.73
2024-02-20T17:32:50.655Z,5.07
2024-02-20T17:35:19.098Z,5.13
2024-02-20T17:37:46.228Z,5.27
2024-02-20T17:40:13.834Z,6.00
2024-02-20T17:42:42.349Z,5.87
2024-02-20T17:45:10.400Z,5.17
2024-02-20T17:47:39.981Z,3.97
2024-02-20T17:50:07.885Z,4.30
2024-02-20T17:52:34.917Z,4.47
2024-02-20T17:55:02.393Z,7.57
2024-02-20T17:57:29.487Z,8.43
2024-02-20T17:59:56.407Z,9.60
2024-02-20T18:02:23.389Z,7.40
2024-02-20T18:04:53.116Z,7.90
2024-02-20T18:07:20.279Z,6.60
2024-02-20T18:09:47.248Z,6.10
2024-02-20T18:12:14.204Z,5.43
2024-02-20T18:14:41.510Z,4.37
2024-02-20T18:17:08.492Z,4.00
2024-02-20T18:19:35.494Z,3.10
2024-02-20T18:22:05.119Z,3.03
2024-02-20T18:24:32.094Z,2.90
2024-02-20T18:26:58.962Z,2.97
2024-02-20T18:29:26.039Z,2.80
2024-02-20T18:31:53.062Z,3.63
2024-02-20T18:34:20.246Z,3.23
2024-02-20T18:36:47.221Z,3.20
2024-02-20T18:39:16.725Z,4.23
2024-02-20T18:41:47.254Z,4.00
2024-02-20T18:44:14.242Z,4.90
2024-02-20T18:46:41.246Z,4.47
2024-02-20T18:49:11.091Z,3.73
2024-02-20T18:51:38.128Z,3.83
2024-02-20T18:54:05.243Z,4.00
2024-02-20T18:56:34.758Z,2.73
2024-02-20T18:59:01.792Z,4.73
2024-02-20T19:01:31.980Z,3.77
2024-02-20T19:03:59.112Z,3.77
2024-02-20T19:06:26.568Z,3.40
2024-02-20T19:08:53.746Z,3.53
2024-02-20T19:11:20.698Z,3.33
2024-02-20T19:13:50.357Z,3.10
2024-02-20T19:16:17.347Z,3.73
2024-02-20T19:18:44.407Z,4.70
2024-02-20T19:21:18.828Z,4.40
2024-02-20T19:23:45.830Z,5.53
2024-02-20T19:26:12.913Z,7.20
2024-02-20T19:28:41.311Z,7.77
2024-02-20T19:31:11.006Z,11.43
2024-02-20T19:33:38.341Z,13.67
2024-02-20T19:36:06.045Z,12.27
2024-02-20T19:38:32.995Z,12.13
2024-02-20T19:41:00.076Z,12.20
2024-02-20T19:43:27.195Z,11.03
2024-02-20T19:45:54.130Z,10.73
2024-02-20T19:48:24.259Z,8.90
2024-02-20T19:50:51.207Z,7.80
2024-02-20T19:53:18.116Z,6.27
2024-02-20T19:55:45.329Z,6.60
2024-02-20T19:58:12.567Z,5.27
2024-02-20T20:00:39.557Z,5.10
2024-02-20T20:03:06.845Z,5.63
2024-02-20T20:05:36.623Z,5.03
2024-02-20T20:08:04.337Z,4.90
2024-02-20T20:10:32.955Z,5.00
2024-02-20T20:12:59.884Z,4.70
2024-02-20T20:15:26.780Z,4.77
2024-02-20T20:17:53.743Z,4.93
2024-02-20T20:20:20.749Z,4.93
2024-02-20T20:22:50.979Z,4.73
2024-02-20T20:25:17.976Z,4.43
2024-02-20T20:27:44.876Z,4.23
2024-02-20T20:30:12.491Z,5.37
2024-02-20T20:32:39.421Z,6.90
2024-02-20T20:35:07.054Z,7.03
2024-02-20T20:37:34.112Z,5.70
2024-02-20T20:40:04.250Z,4.80
2024-02-20T20:42:31.169Z,4.30
2024-02-20T20:44:58.082Z,4.20
2024-02-20T20:47:24.983Z,5.97
2024-02-20T20:49:51.992Z,4.43
2024-02-20T20:52:18.988Z,4.30
2024-02-20T20:54:45.942Z,4.80
2024-02-20T20:57:15.943Z,4.40
2024-02-20T20:59:42.883Z,8.50
2024-02-20T21:02:09.930Z,18.10
2024-02-20T21:04:37.406Z,16.43
2024-02-20T21:07:04.589Z,9.87
2024-02-20T21:09:31.628Z,13.37
2024-02-20T21:11:58.578Z,9.17
2024-02-20T21:14:28.127Z,10.47
2024-02-20T21:16:55.105Z,21.90
2024-02-20T21:19:22.263Z,24.37
2024-02-20T21:21:49.235Z,18.90
2024-02-20T21:24:16.148Z,13.53
2024-02-20T21:26:43.153Z,9.53
2024-02-20T21:29:10.084Z,8.33
2024-02-20T21:31:40.548Z,7.33
2024-02-20T21:34:08.245Z,7.00
2024-02-20T21:36:35.641Z,5.87
2024-02-20T21:39:02.569Z,4.43
2024-02-20T21:41:29.568Z,4.43
2024-02-20T21:43:56.652Z,4.20
2024-02-20T21:46:24.033Z,5.93
2024-02-20T21:48:53.658Z,8.73
2024-02-20T21:51:21.221Z,5.90
2024-02-20T21:53:48.601Z,10.40
2024-02-20T21:56:16.674Z,7.50
2024-02-20T21:58:44.384Z,11.53
2024-02-20T22:01:11.966Z,7.83
2024-02-20T22:03:39.261Z,5.93
2024-02-20T22:06:08.892Z,5.43
2024-02-20T22:08:35.863Z,4.63
2024-02-20T22:11:03.156Z,4.97
2024-02-20T22:13:30.688Z,6.10
2024-02-20T22:15:58.028Z,5.50
2024-02-20T22:18:26.055Z,3.90
2024-02-20T22:20:53.203Z,3.63
2024-02-20T22:23:22.981Z,3.93
2024-02-20T22:25:49.981Z,3.60
2024-02-20T22:28:17.053Z,3.80
2024-02-20T22:30:43.999Z,4.13
2024-02-20T22:33:11.060Z,3.93
2024-02-20T22:35:38.732Z,3.90
2024-02-20T22:38:07.282Z,3.50
2024-02-20T22:40:36.802Z,3.70
2024-02-20T22:43:04.231Z,3.10
2024-02-20T22:45:31.426Z,3.33
2024-02-20T22:47:58.501Z,2.93
2024-02-20T22:50:25.502Z,3.63
2024-02-20T22:52:52.512Z,4.17
2024-02-20T22:55:19.486Z,4.20
2024-02-20T22:57:49.030Z,4.57
2024-02-20T23:00:17.397Z,3.90
2024-02-20T23:02:44.299Z,3.50
2024-02-20T23:05:11.247Z,3.93
2024-02-20T23:07:38.403Z,4.03
2024-02-20T23:10:06.795Z,3.87
2024-02-20T23:12:33.699Z,3.70
2024-02-20T23:15:03.352Z,3.47
2024-02-20T23:17:30.250Z,4.23
2024-02-20T23:19:57.218Z,3.50
2024-02-20T23:22:24.154Z,4.07
2024-02-20T23:24:51.047Z,3.50
2024-02-20T23:27:17.940Z,3.40
2024-02-20T23:29:44.866Z,3.03
2024-02-20T23:32:14.367Z,3.27
2024-02-20T23:34:41.384Z,3.17
2024-02-20T23:37:08.649Z,3.13
2024-02-20T23:39:35.549Z,3.33
2024-02-20T23:42:02.439Z,2.97
2024-02-20T23:44:29.371Z,3.00
2024-02-20T23:46:56.336Z,3.17
2024-02-20T23:49:25.933Z,3.20
2024-02-20T23:51:52.908Z,3.37
2024-02-20T23:54:19.801Z,3.37
2024-02-20T23:56:46.690Z,3.20
2024-02-20T23:59:14.418Z,3.00
